DLH47A LFMN-EDDS
Flight info
| Callsign | DLH47A |
|---|---|
| Flight time | N/A |
| Altitude | 32000 |
| Route | BASIP DCT ANAKI DCT ABESI DCT UTAVO DCT SOPER N851 ROMIR/N0363F220 T125 REUTL REUTL1W |
| Aircraft | A320/M-SDE3FGHIRWY/LB1 |
Departure
| Time | 2026-05-07 19:54 |
|---|---|
| Airport | Nice-Côte d'Azur Airport (LFMN) |
Arrival
| Time | N/A |
|---|---|
| Airport | Stuttgart Airport (EDDS) |
| Time | Latitude | Longitude | Altitude | Speed | Heading |
|---|---|---|---|---|---|
| 2026-05-07 19:28 | 43.66047 | 7.20706 | 22 ft | 0 kts | 291° |
| 2026-05-07 19:45 | 43.66042 | 7.20725 | 22 ft | 2 kts | 291° |
| 2026-05-07 19:45 | 43.66038 | 7.20747 | 22 ft | 2 kts | 273° |
| 2026-05-07 19:46 | 43.66037 | 7.20770 | 22 ft | 2 kts | 269° |
| 2026-05-07 19:46 | 43.66038 | 7.20793 | 22 ft | 2 kts | 240° |
| 2026-05-07 19:46 | 43.66051 | 7.20808 | 24 ft | 2 kts | 168° |
| 2026-05-07 19:46 | 43.66052 | 7.20808 | 24 ft | 0 kts | 165° |
| 2026-05-07 19:48 | 43.66017 | 7.20817 | 23 ft | 11 kts | 171° |
| 2026-05-07 19:48 | 43.65939 | 7.20835 | 22 ft | 11 kts | 170° |
| 2026-05-07 19:48 | 43.65870 | 7.20851 | 23 ft | 9 kts | 170° |
| 2026-05-07 19:48 | 43.65811 | 7.20865 | 22 ft | 8 kts | 170° |
| 2026-05-07 19:49 | 43.65761 | 7.20877 | 22 ft | 7 kts | 170° |
| 2026-05-07 19:49 | 43.65718 | 7.20887 | 22 ft | 6 kts | 170° |
| 2026-05-07 19:49 | 43.65682 | 7.20895 | 22 ft | 5 kts | 170° |
| 2026-05-07 19:49 | 43.65653 | 7.20902 | 22 ft | 4 kts | 171° |
| 2026-05-07 19:50 | 43.65573 | 7.20919 | 23 ft | 20 kts | 171° |
| 2026-05-07 19:50 | 43.65393 | 7.20957 | 22 ft | 30 kts | 174° |
| 2026-05-07 19:50 | 43.65240 | 7.20801 | 22 ft | 29 kts | 218° |
| 2026-05-07 19:50 | 43.65096 | 7.20605 | 22 ft | 30 kts | 225° |
| 2026-05-07 19:51 | 43.64950 | 7.20407 | 22 ft | 23 kts | 224° |
| 2026-05-07 19:51 | 43.64831 | 7.20241 | 22 ft | 25 kts | 225° |
| 2026-05-07 19:51 | 43.64752 | 7.20193 | 24 ft | 9 kts | 166° |
| 2026-05-07 19:51 | 43.64710 | 7.20245 | 22 ft | 7 kts | 116° |
| 2026-05-07 19:52 | 43.64712 | 7.20301 | 22 ft | 5 kts | 49° |
| 2026-05-07 19:52 | 43.64721 | 7.20314 | 22 ft | 0 kts | 48° |
| 2026-05-07 19:53 | 43.64815 | 7.20446 | 22 ft | 56 kts | 45° |
| 2026-05-07 19:53 | 43.65267 | 7.21066 | 24 ft | 123 kts | 45° |
| 2026-05-07 19:54 | 43.65981 | 7.22062 | 214 ft | 155 kts | 47° |
| 2026-05-07 19:54 | 43.66622 | 7.23256 | 798 ft | 157 kts | 67° |
| 2026-05-07 19:54 | 43.66792 | 7.24722 | 1368 ft | 163 kts | 99° |
| 2026-05-07 19:54 | 43.66362 | 7.26232 | 1849 ft | 179 kts | 126° |
| 2026-05-07 19:55 | 43.65390 | 7.27496 | 2165 ft | 206 kts | 144° |
| 2026-05-07 19:55 | 43.64266 | 7.28841 | 2768 ft | 219 kts | 130° |
| 2026-05-07 19:55 | 43.63437 | 7.30604 | 3651 ft | 219 kts | 109° |
| 2026-05-07 19:55 | 43.63147 | 7.32739 | 3178 ft | 270 kts | 96° |
| 2026-05-07 19:56 | 43.63001 | 7.35704 | 3289 ft | 296 kts | 94° |
| 2026-05-07 19:56 | 43.63099 | 7.38351 | 5451 ft | 263 kts | 81° |
| 2026-05-07 19:56 | 43.63571 | 7.40748 | 6667 ft | 259 kts | 69° |
| 2026-05-07 19:56 | 43.64221 | 7.43016 | 7820 ft | 249 kts | 69° |
| 2026-05-07 19:57 | 43.64856 | 7.45219 | 8859 ft | 245 kts | 69° |
| 2026-05-07 19:57 | 43.65633 | 7.47427 | 9353 ft | 267 kts | 58° |
| 2026-05-07 19:57 | 43.66725 | 7.49564 | 9918 ft | 283 kts | 53° |
| 2026-05-07 19:57 | 43.67953 | 7.51760 | 10449 ft | 296 kts | 52° |
| 2026-05-07 19:58 | 43.69239 | 7.54085 | 10965 ft | 312 kts | 53° |
| 2026-05-07 19:58 | 43.70550 | 7.56568 | 11494 ft | 326 kts | 55° |
| 2026-05-07 19:58 | 43.71873 | 7.59198 | 12022 ft | 338 kts | 56° |
| 2026-05-07 19:58 | 43.73200 | 7.61930 | 12569 ft | 344 kts | 57° |
| 2026-05-07 19:59 | 43.74504 | 7.64684 | 13103 ft | 349 kts | 57° |
| 2026-05-07 19:59 | 43.75827 | 7.67516 | 13669 ft | 353 kts | 58° |
| 2026-05-07 19:59 | 43.77161 | 7.70385 | 14176 ft | 357 kts | 57° |
| 2026-05-07 19:59 | 43.78511 | 7.73280 | 14468 ft | 357 kts | 57° |
| 2026-05-07 20:00 | 43.79869 | 7.76182 | 14976 ft | 361 kts | 57° |
| 2026-05-07 20:00 | 43.81245 | 7.79115 | 15498 ft | 365 kts | 57° |
| 2026-05-07 20:00 | 43.82634 | 7.82078 | 16025 ft | 368 kts | 57° |
| 2026-05-07 20:00 | 43.84034 | 7.85065 | 16562 ft | 371 kts | 57° |
| 2026-05-07 20:01 | 43.85446 | 7.88077 | 17109 ft | 375 kts | 57° |
| 2026-05-07 20:01 | 43.86871 | 7.91119 | 17666 ft | 378 kts | 57° |
| 2026-05-07 20:01 | 43.88308 | 7.94193 | 18233 ft | 382 kts | 57° |
| 2026-05-07 20:01 | 43.89729 | 7.97279 | 18726 ft | 385 kts | 58° |
| 2026-05-07 20:02 | 43.91109 | 8.00486 | 19228 ft | 390 kts | 60° |
| 2026-05-07 20:02 | 43.92452 | 8.03777 | 19739 ft | 394 kts | 61° |
| 2026-05-07 20:02 | 43.93783 | 8.07120 | 20257 ft | 398 kts | 61° |
| 2026-05-07 20:02 | 43.95126 | 8.10504 | 20790 ft | 402 kts | 61° |
| 2026-05-07 20:03 | 43.96486 | 8.13916 | 21327 ft | 406 kts | 60° |
| 2026-05-07 20:03 | 43.97870 | 8.17359 | 21875 ft | 410 kts | 60° |
| 2026-05-07 20:03 | 43.99275 | 8.20830 | 22436 ft | 414 kts | 60° |
| 2026-05-07 20:03 | 44.00696 | 8.24325 | 23003 ft | 418 kts | 60° |
| 2026-05-07 20:04 | 44.02130 | 8.27851 | 23583 ft | 421 kts | 60° |
| 2026-05-07 20:04 | 44.03577 | 8.31406 | 24070 ft | 424 kts | 60° |
| 2026-05-07 20:04 | 44.05029 | 8.34983 | 24549 ft | 426 kts | 59° |
| 2026-05-07 20:04 | 44.06490 | 8.38586 | 25047 ft | 429 kts | 59° |
| 2026-05-07 20:05 | 44.07935 | 8.42163 | 25554 ft | 431 kts | 59° |
| 2026-05-07 20:05 | 44.09404 | 8.45806 | 26069 ft | 432 kts | 59° |
| 2026-05-07 20:05 | 44.10877 | 8.49474 | 26607 ft | 434 kts | 59° |
| 2026-05-07 20:05 | 44.12351 | 8.53152 | 27143 ft | 435 kts | 59° |
| 2026-05-07 20:06 | 44.13823 | 8.56829 | 27691 ft | 436 kts | 59° |
| 2026-05-07 20:06 | 44.15304 | 8.60517 | 28251 ft | 432 kts | 57° |
| 2026-05-07 20:06 | 44.16959 | 8.63862 | 28812 ft | 410 kts | 46° |
| 2026-05-07 20:06 | 44.18836 | 8.66659 | 29369 ft | 391 kts | 37° |
| 2026-05-07 20:07 | 44.20903 | 8.69013 | 29961 ft | 379 kts | 28° |
| 2026-05-07 20:07 | 44.23119 | 8.70977 | 30336 ft | 376 kts | 20° |
| 2026-05-07 20:07 | 44.25472 | 8.72503 | 30658 ft | 370 kts | 11° |
| 2026-05-07 20:07 | 44.27903 | 8.73565 | 30991 ft | 363 kts | 3° |
| 2026-05-07 20:08 | 44.30370 | 8.74172 | 31329 ft | 357 kts | 355° |
| 2026-05-07 20:08 | 44.32844 | 8.74544 | 31662 ft | 358 kts | 356° |
| 2026-05-07 20:08 | 44.35332 | 8.74927 | 31949 ft | 363 kts | 356° |
| 2026-05-07 20:08 | 44.37878 | 8.75321 | 32003 ft | 374 kts | 356° |
| 2026-05-07 20:09 | 44.40510 | 8.75726 | 32002 ft | 387 kts | 356° |
| 2026-05-07 20:09 | 44.43232 | 8.76141 | 32005 ft | 400 kts | 357° |
| 2026-05-07 20:09 | 44.46050 | 8.76574 | 32002 ft | 414 kts | 357° |
| 2026-05-07 20:10 | 44.51898 | 8.77496 | 32007 ft | 437 kts | 358° |
| 2026-05-07 20:10 | 44.54957 | 8.77991 | 32005 ft | 448 kts | 358° |
| 2026-05-07 20:10 | 44.58091 | 8.78499 | 32007 ft | 457 kts | 358° |
| 2026-05-07 20:11 | 44.64536 | 8.79543 | 32015 ft | 474 kts | 359° |
| 2026-05-07 20:11 | 44.71165 | 8.80608 | 32013 ft | 484 kts | 360° |
| 2026-05-07 20:12 | 44.77910 | 8.81683 | 32016 ft | 490 kts | 360° |
| 2026-05-07 20:12 | 44.84718 | 8.82770 | 32013 ft | 494 kts | 360° |
| 2026-05-07 20:13 | 44.91527 | 8.83860 | 32012 ft | 497 kts | 0° |
| 2026-05-07 20:13 | 44.98412 | 8.84975 | 32002 ft | 499 kts | 0° |
| 2026-05-07 20:14 | 45.05325 | 8.86096 | 32043 ft | 500 kts | 1° |
| 2026-05-07 20:14 | 45.08768 | 8.86657 | 32393 ft | 493 kts | 1° |
| 2026-05-07 20:14 | 45.12159 | 8.87216 | 32760 ft | 487 kts | 1° |
| 2026-05-07 20:14 | 45.15463 | 8.87768 | 33127 ft | 481 kts | 0° |
| 2026-05-07 20:15 | 45.18779 | 8.88328 | 33508 ft | 477 kts | 0° |
| 2026-05-07 20:15 | 45.22060 | 8.88876 | 33894 ft | 473 kts | 360° |
| 2026-05-07 20:15 | 45.25314 | 8.89392 | 34258 ft | 469 kts | 0° |
| 2026-05-07 20:15 | 45.28556 | 8.89893 | 34623 ft | 467 kts | 0° |
| 2026-05-07 20:16 | 45.31781 | 8.90390 | 34961 ft | 465 kts | 0° |
| 2026-05-07 20:16 | 45.34985 | 8.90891 | 35299 ft | 462 kts | 0° |
| 2026-05-07 20:16 | 45.38178 | 8.91399 | 35644 ft | 460 kts | 0° |
| 2026-05-07 20:17 | 45.44668 | 8.92447 | 35129 ft | 484 kts | 1° |
| 2026-05-07 20:17 | 45.47999 | 8.92992 | 34993 ft | 489 kts | 1° |
| 2026-05-07 20:17 | 45.51370 | 8.93557 | 35126 ft | 487 kts | 1° |
| 2026-05-07 20:18 | 45.58101 | 8.94683 | 35002 ft | 485 kts | 1° |